createdAt,value
2022-12-19T00:01:53.682Z,13.67
2022-12-19T00:04:23.062Z,12.20
2022-12-19T00:06:50.728Z,11.53
2022-12-19T00:09:18.480Z,9.43
2022-12-19T00:11:48.506Z,10.73
2022-12-19T00:14:16.285Z,11.77
2022-12-19T00:16:44.088Z,11.40
2022-12-19T00:19:12.761Z,10.97
2022-12-19T00:21:41.833Z,12.20
2022-12-19T00:24:20.711Z,14.37
2022-12-19T00:26:49.938Z,11.13
2022-12-19T00:29:17.665Z,11.10
2022-12-19T00:31:45.632Z,12.17
2022-12-19T00:34:13.404Z,13.00
2022-12-19T00:36:42.415Z,11.83
2022-12-19T00:39:11.531Z,11.90
2022-12-19T00:41:41.790Z,10.67
2022-12-19T00:44:12.825Z,13.07
2022-12-19T00:46:41.790Z,12.23
2022-12-19T00:49:09.611Z,13.83
2022-12-19T00:51:38.672Z,13.17
2022-12-19T00:54:08.002Z,12.33
2022-12-19T00:56:38.207Z,12.77
2022-12-19T00:59:06.645Z,12.63
2022-12-19T01:01:36.542Z,11.90
2022-12-19T01:06:53.988Z,13.60
2022-12-19T01:09:26.752Z,16.10
2022-12-19T01:12:11.852Z,15.27
2022-12-19T01:14:39.514Z,15.03
2022-12-19T01:17:07.172Z,14.63
2022-12-19T01:19:38.941Z,14.73
2022-12-19T01:22:09.808Z,15.87
2022-12-19T01:24:39.476Z,15.20
2022-12-19T01:27:07.199Z,13.83
2022-12-19T01:29:36.701Z,16.73
2022-12-19T01:32:12.298Z,13.57
2022-12-19T01:34:39.945Z,14.13
2022-12-19T01:37:07.590Z,14.93
2022-12-19T01:39:35.193Z,15.87
2022-12-19T01:42:11.514Z,17.57
2022-12-19T01:44:39.205Z,15.23
2022-12-19T01:47:14.469Z,14.67
2022-12-19T01:49:42.127Z,14.20
2022-12-19T01:52:13.497Z,14.13
2022-12-19T01:54:51.420Z,14.17
2022-12-19T01:57:21.170Z,12.40
2022-12-19T01:59:53.296Z,17.43
2022-12-19T02:02:27.637Z,17.23
2022-12-19T02:04:55.353Z,13.83
2022-12-19T02:07:26.226Z,15.03
2022-12-19T02:09:57.379Z,16.13
2022-12-19T02:12:34.535Z,14.70
2022-12-19T02:15:03.696Z,16.20
2022-12-19T02:17:39.745Z,15.90
2022-12-19T02:20:52.287Z,14.50
2022-12-19T02:23:55.437Z,15.77
2022-12-19T02:26:50.459Z,16.67
2022-12-19T02:29:42.366Z,14.73
2022-12-19T02:32:19.375Z,15.57
2022-12-19T02:34:53.824Z,17.70
2022-12-19T02:37:25.254Z,20.23
2022-12-19T02:39:57.348Z,21.13
2022-12-19T02:42:31.892Z,21.37
2022-12-19T02:45:01.840Z,19.97
2022-12-19T02:47:33.011Z,17.77
2022-12-19T02:50:00.779Z,15.23
2022-12-19T02:52:48.871Z,16.87
2022-12-19T02:55:21.253Z,15.97
2022-12-19T02:58:05.004Z,17.03
2022-12-19T03:00:37.566Z,17.20
2022-12-19T03:03:12.056Z,14.60
2022-12-19T03:05:46.405Z,16.23
2022-12-19T03:08:23.003Z,19.00
2022-12-19T03:10:58.207Z,18.07
2022-12-19T03:13:30.172Z,16.47
2022-12-19T03:15:59.253Z,17.20
2022-12-19T03:18:28.703Z,16.93
2022-12-19T03:21:05.902Z,17.83
2022-12-19T03:23:33.896Z,15.23
2022-12-19T03:26:06.541Z,15.30
2022-12-19T03:28:39.744Z,15.33
2022-12-19T03:31:09.769Z,15.70
2022-12-19T03:33:40.925Z,14.50
2022-12-19T03:36:12.977Z,14.17
2022-12-19T03:38:44.544Z,14.83
2022-12-19T03:41:15.277Z,15.90
2022-12-19T03:43:44.669Z,16.03
2022-12-19T03:46:17.415Z,17.03
2022-12-19T03:48:48.352Z,16.10
2022-12-19T03:51:23.109Z,15.47
2022-12-19T03:53:59.049Z,17.00
2022-12-19T03:56:35.717Z,13.20
2022-12-19T03:59:09.808Z,13.07
2022-12-19T04:01:38.911Z,15.03
2022-12-19T04:04:09.848Z,14.80
2022-12-19T04:06:39.583Z,18.20
2022-12-19T04:09:08.639Z,15.47
2022-12-19T04:11:40.992Z,17.83
2022-12-19T04:14:12.645Z,17.13
2022-12-19T04:16:46.482Z,14.30
2022-12-19T04:19:20.521Z,16.77
2022-12-19T04:21:53.482Z,18.97
2022-12-19T04:24:26.553Z,16.67
2022-12-19T04:26:58.377Z,17.00
2022-12-19T04:29:28.418Z,16.50
2022-12-19T04:31:57.152Z,14.80
2022-12-19T04:34:26.208Z,17.63
2022-12-19T04:36:53.871Z,20.13
2022-12-19T04:39:21.621Z,15.80
2022-12-19T04:41:49.846Z,18.10
2022-12-19T04:44:17.759Z,17.17
2022-12-19T04:46:45.495Z,17.00
2022-12-19T04:49:13.217Z,16.83
2022-12-19T04:51:42.311Z,17.83
2022-12-19T04:54:09.939Z,17.47
2022-12-19T04:56:37.562Z,18.30
2022-12-19T04:59:05.203Z,17.90
2022-12-19T05:01:33.023Z,14.80
2022-12-19T05:04:04.467Z,16.00
2022-12-19T05:06:33.164Z,17.27
2022-12-19T05:09:02.165Z,16.93
2022-12-19T05:11:29.884Z,17.90
2022-12-19T05:13:59.604Z,18.17
2022-12-19T05:16:27.370Z,17.20
2022-12-19T05:18:55.404Z,15.37
2022-12-19T05:21:23.667Z,18.40
2022-12-19T05:23:51.459Z,17.50
2022-12-19T05:26:20.651Z,16.13
2022-12-19T05:28:48.803Z,16.33
2022-12-19T05:31:18.210Z,15.63
2022-12-19T05:33:45.851Z,15.67
2022-12-19T05:36:15.021Z,17.87
2022-12-19T05:38:43.000Z,18.97
2022-12-19T05:41:12.324Z,19.27
2022-12-19T05:43:41.358Z,15.90
2022-12-19T05:46:09.302Z,19.13
2022-12-19T05:48:37.436Z,15.53
2022-12-19T05:51:05.884Z,17.40
2022-12-19T05:53:33.867Z,17.97
2022-12-19T05:56:06.068Z,11.53
2022-12-19T05:58:36.389Z,21.13
2022-12-19T06:01:07.143Z,16.93
2022-12-19T06:03:35.149Z,22.50
2022-12-19T06:06:03.828Z,18.20
2022-12-19T06:08:31.842Z,15.70
2022-12-19T06:11:01.041Z,17.20
2022-12-19T06:13:28.981Z,20.13
2022-12-19T06:15:59.997Z,19.40
2022-12-19T06:18:30.144Z,18.50
2022-12-19T06:20:59.147Z,13.20
2022-12-19T06:23:26.858Z,20.97
2022-12-19T06:25:57.427Z,18.87
2022-12-19T06:28:25.552Z,19.33
2022-12-19T06:30:53.380Z,19.27
2022-12-19T06:33:21.082Z,19.57
2022-12-19T06:35:50.062Z,20.90
2022-12-19T06:38:17.748Z,17.60
2022-12-19T06:41:03.660Z,18.07
2022-12-19T06:43:31.385Z,22.67
2022-12-19T06:45:59.178Z,22.00
2022-12-19T06:48:28.860Z,22.27
2022-12-19T06:50:57.865Z,19.17
2022-12-19T06:53:25.746Z,21.13
2022-12-19T06:55:56.185Z,14.07
2022-12-19T06:58:24.611Z,17.50
2022-12-19T07:00:53.148Z,19.33
2022-12-19T07:03:25.129Z,18.87
2022-12-19T07:05:54.168Z,19.03
2022-12-19T07:08:23.340Z,18.53
2022-12-19T07:10:51.028Z,20.23
2022-12-19T07:13:18.705Z,17.97
2022-12-19T07:15:46.369Z,20.77
2022-12-19T07:18:14.285Z,21.83
2022-12-19T07:20:45.223Z,21.67
2022-12-19T07:23:18.379Z,21.27
2022-12-19T07:25:47.722Z,24.70
2022-12-19T07:28:16.063Z,22.43
2022-12-19T07:30:43.983Z,25.23
2022-12-19T07:33:13.610Z,21.90
2022-12-19T07:35:44.720Z,21.03
2022-12-19T07:38:12.403Z,14.60
2022-12-19T07:40:40.077Z,20.43
2022-12-19T07:43:09.367Z,19.70
2022-12-19T07:45:39.233Z,17.40
2022-12-19T07:48:08.380Z,19.23
2022-12-19T07:50:36.159Z,22.20
2022-12-19T07:53:04.000Z,24.77
2022-12-19T07:55:31.821Z,19.57
2022-12-19T07:58:00.340Z,22.70
2022-12-19T08:00:30.562Z,26.00
2022-12-19T08:02:59.565Z,22.83
2022-12-19T08:05:27.407Z,21.17
2022-12-19T08:07:55.241Z,24.10
2022-12-19T08:10:23.454Z,25.57
2022-12-19T08:12:51.565Z,25.40
2022-12-19T08:15:19.336Z,28.73
2022-12-19T08:17:48.642Z,27.77
2022-12-19T08:20:16.415Z,24.17
2022-12-19T08:22:45.076Z,19.90
2022-12-19T08:25:13.263Z,23.43
2022-12-19T08:27:42.659Z,25.43
2022-12-19T08:30:14.164Z,26.50
2022-12-19T08:32:41.882Z,25.37
2022-12-19T08:35:11.078Z,25.13
2022-12-19T08:37:39.753Z,24.50
2022-12-19T08:40:09.164Z,24.30
2022-12-19T08:42:36.868Z,26.80
2022-12-19T08:45:05.196Z,24.60
2022-12-19T08:47:33.003Z,25.73
2022-12-19T08:50:01.195Z,22.97
2022-12-19T08:52:30.220Z,23.07
2022-12-19T08:54:57.946Z,24.27
2022-12-19T08:57:26.110Z,25.33
2022-12-19T08:59:54.032Z,22.13
2022-12-19T09:02:24.271Z,22.67
2022-12-19T09:05:57.865Z,21.77
2022-12-19T09:07:41.272Z,16.83
2022-12-19T09:10:10.146Z,24.23
2022-12-19T09:12:37.785Z,21.83
2022-12-19T09:15:06.197Z,23.80
2022-12-19T09:17:34.145Z,19.80
2022-12-19T09:20:02.301Z,20.43
2022-12-19T09:22:29.989Z,20.10
2022-12-19T09:24:59.016Z,19.40
2022-12-19T09:27:27.064Z,20.93
2022-12-19T09:29:54.743Z,20.33
2022-12-19T09:32:22.451Z,21.43
2022-12-19T09:34:50.179Z,19.60
2022-12-19T09:37:18.086Z,16.77
2022-12-19T09:39:46.733Z,18.20
2022-12-19T09:42:44.736Z,16.57
2022-12-19T09:45:46.202Z,16.27
2022-12-19T09:48:23.558Z,13.40
2022-12-19T09:51:09.393Z,17.10
2022-12-19T09:53:44.165Z,13.00
2022-12-19T09:56:16.645Z,13.23
2022-12-19T09:58:50.163Z,14.87
2022-12-19T10:01:23.210Z,13.23
2022-12-19T10:04:00.176Z,14.37
2022-12-19T10:07:10.525Z,13.50
2022-12-19T10:11:25.102Z,14.10
2022-12-19T10:12:47.916Z,15.07
2022-12-19T10:15:18.719Z,12.70
2022-12-19T10:18:11.860Z,12.97
2022-12-19T10:20:44.457Z,13.40
2022-12-19T10:23:31.673Z,14.23
2022-12-19T10:26:04.635Z,12.07
2022-12-19T10:28:59.035Z,13.03
2022-12-19T10:31:35.590Z,17.33
2022-12-19T10:34:13.558Z,15.67
2022-12-19T10:39:43.318Z,15.93
2022-12-19T10:42:18.187Z,16.73
2022-12-19T10:44:48.262Z,18.23
2022-12-19T10:47:18.588Z,18.23
2022-12-19T10:49:46.385Z,19.67
2022-12-19T10:52:14.292Z,16.23
2022-12-19T10:54:43.965Z,15.87
2022-12-19T10:57:26.201Z,15.53
2022-12-19T10:59:59.697Z,15.63
2022-12-19T11:02:41.408Z,17.83
2022-12-19T11:05:24.349Z,16.20
2022-12-19T11:08:02.985Z,20.23
2022-12-19T11:11:33.324Z,20.40
2022-12-19T11:19:16.584Z,18.40
2022-12-19T11:22:26.443Z,17.53
2022-12-19T11:29:27.699Z,19.57
2022-12-19T11:29:38.719Z,18.30
2022-12-19T11:29:42.227Z,16.00
2022-12-19T11:30:45.317Z,21.17
2022-12-19T11:32:14.095Z,19.67
2022-12-19T11:33:47.244Z,17.57
2022-12-19T11:36:32.052Z,18.73
2022-12-19T11:39:00.856Z,20.07
2022-12-19T11:41:34.858Z,19.67
2022-12-19T11:44:09.441Z,18.97
2022-12-19T11:46:43.675Z,21.27
2022-12-19T11:49:23.241Z,18.97
2022-12-19T11:51:57.463Z,21.67
2022-12-19T11:54:28.831Z,20.17
2022-12-19T11:56:58.157Z,20.13
2022-12-19T11:59:31.676Z,20.53
2022-12-19T12:02:07.747Z,20.53
2022-12-19T12:05:01.411Z,20.17
2022-12-19T12:09:14.477Z,20.33
2022-12-19T12:14:05.896Z,22.50
2022-12-19T12:22:04.275Z,22.20
2022-12-19T12:30:59.036Z,19.00
2022-12-19T12:31:07.544Z,21.17
2022-12-19T12:31:09.073Z,17.77
2022-12-19T12:31:45.491Z,20.17
2022-12-19T12:31:55.325Z,20.03
2022-12-19T12:35:42.377Z,21.23
2022-12-19T12:40:55.046Z,19.70
2022-12-19T12:43:36.218Z,21.73
2022-12-19T12:46:06.208Z,20.70
2022-12-19T12:48:38.482Z,19.10
2022-12-19T12:51:08.157Z,21.73
2022-12-19T12:53:39.181Z,20.47
2022-12-19T12:56:11.565Z,21.10
2022-12-19T12:59:05.279Z,22.60
2022-12-19T13:01:38.825Z,17.93
2022-12-19T13:04:19.238Z,20.60
2022-12-19T13:07:05.404Z,20.40
2022-12-19T13:09:36.538Z,17.93
2022-12-19T13:12:39.553Z,19.90
2022-12-19T13:15:36.936Z,19.80
2022-12-19T13:18:35.512Z,19.70
2022-12-19T13:21:06.220Z,18.33
2022-12-19T13:23:46.518Z,17.83
2022-12-19T13:26:45.873Z,21.60
2022-12-19T13:29:51.243Z,20.73
2022-12-19T13:32:18.917Z,18.07
2022-12-19T13:35:04.805Z,19.43
2022-12-19T13:39:56.782Z,18.07
2022-12-19T13:40:53.042Z,19.80
2022-12-19T13:43:48.100Z,18.53
2022-12-19T13:46:33.511Z,19.00
2022-12-19T13:49:04.701Z,19.80
2022-12-19T13:51:43.911Z,19.07
2022-12-19T13:54:24.197Z,18.90
2022-12-19T13:56:54.060Z,20.70
2022-12-19T13:59:23.268Z,18.80
2022-12-19T14:01:54.273Z,19.37
2022-12-19T14:04:31.018Z,18.67
2022-12-19T14:07:02.295Z,18.53
2022-12-19T14:11:29.063Z,18.00
2022-12-19T14:13:54.424Z,20.30
2022-12-19T14:15:33.961Z,19.00
2022-12-19T14:18:44.776Z,21.13
2022-12-19T14:22:04.607Z,21.60
2022-12-19T14:24:14.938Z,21.23
2022-12-19T14:28:25.803Z,19.80
2022-12-19T14:29:45.466Z,21.03
2022-12-19T14:33:39.330Z,21.57
2022-12-19T14:36:10.400Z,23.57
2022-12-19T14:39:23.842Z,20.50
2022-12-19T14:41:08.235Z,18.00
2022-12-19T14:43:59.409Z,19.03
2022-12-19T14:54:02.603Z,17.43
2022-12-19T14:54:15.726Z,21.53
2022-12-19T14:54:32.221Z,20.67
2022-12-19T14:56:13.690Z,22.70
2022-12-19T14:58:52.687Z,21.30
2022-12-19T15:01:23.804Z,20.87
2022-12-19T15:04:49.272Z,18.30
2022-12-19T15:07:08.584Z,16.50
2022-12-19T15:11:08.239Z,19.73
2022-12-19T15:14:38.037Z,17.70
2022-12-19T15:15:41.245Z,19.23
2022-12-19T15:18:24.804Z,18.50
2022-12-19T15:20:53.774Z,17.97
2022-12-19T15:23:22.681Z,18.00
2022-12-19T15:26:09.036Z,19.17
2022-12-19T15:28:41.981Z,20.63
2022-12-19T15:31:18.203Z,16.80
2022-12-19T15:34:14.471Z,18.20
2022-12-19T15:36:33.621Z,19.80
2022-12-19T15:39:01.299Z,18.80
2022-12-19T15:41:30.650Z,17.47
2022-12-19T15:44:06.238Z,17.67
2022-12-19T15:46:34.599Z,19.03
2022-12-19T15:49:02.480Z,15.87
2022-12-19T15:51:30.221Z,17.60
2022-12-19T15:54:15.523Z,18.53
2022-12-19T15:56:50.395Z,18.63
2022-12-19T15:59:28.626Z,17.43
2022-12-19T16:02:00.772Z,15.63
2022-12-19T16:04:29.462Z,15.30
2022-12-19T16:06:57.224Z,15.70
2022-12-19T16:09:27.106Z,18.97
2022-12-19T16:11:58.036Z,18.73
2022-12-19T16:14:27.001Z,17.30
2022-12-19T16:16:56.111Z,17.10
2022-12-19T16:19:26.418Z,16.60
2022-12-19T16:21:54.826Z,16.13
2022-12-19T16:24:23.084Z,14.13
2022-12-19T16:26:54.840Z,16.90
2022-12-19T16:29:26.388Z,17.77
2022-12-19T16:31:54.860Z,16.10
2022-12-19T16:34:24.168Z,15.03
2022-12-19T16:36:52.165Z,14.80
2022-12-19T16:39:19.931Z,16.40
2022-12-19T16:41:48.070Z,15.37
2022-12-19T16:44:19.633Z,14.40
2022-12-19T16:46:51.262Z,15.10
2022-12-19T16:49:22.681Z,15.60
2022-12-19T16:51:51.142Z,15.93
2022-12-19T16:54:20.121Z,15.17
2022-12-19T16:56:50.156Z,17.27
2022-12-19T16:59:21.762Z,15.10
2022-12-19T17:01:51.063Z,16.90
2022-12-19T17:04:21.454Z,15.57
2022-12-19T17:06:49.766Z,17.33
2022-12-19T17:09:19.587Z,18.43
2022-12-19T17:11:50.196Z,15.30
2022-12-19T17:14:21.865Z,15.97
2022-12-19T17:16:53.861Z,17.50
2022-12-19T17:19:24.678Z,17.53
2022-12-19T17:21:52.868Z,15.17
2022-12-19T17:24:20.632Z,17.07
2022-12-19T17:26:48.914Z,16.07
2022-12-19T17:29:16.617Z,15.70
2022-12-19T17:31:44.482Z,15.13
2022-12-19T17:34:18.839Z,13.03
2022-12-19T17:36:46.632Z,16.20
2022-12-19T17:39:20.646Z,16.37
2022-12-19T17:41:48.621Z,15.03
2022-12-19T17:44:16.441Z,17.80
2022-12-19T17:46:44.763Z,16.07
2022-12-19T17:49:17.941Z,18.30
2022-12-19T17:51:49.815Z,14.97
2022-12-19T17:54:17.588Z,16.27
2022-12-19T17:56:45.286Z,14.77
2022-12-19T17:59:13.348Z,17.33
2022-12-19T18:01:42.265Z,13.27
2022-12-19T18:04:15.007Z,15.77
2022-12-19T18:06:44.068Z,13.73
2022-12-19T18:09:19.618Z,10.63
2022-12-19T18:11:47.649Z,15.37
2022-12-19T18:14:15.836Z,14.77
2022-12-19T18:16:45.004Z,14.50
2022-12-19T18:19:18.260Z,16.93
2022-12-19T18:21:47.638Z,16.40
2022-12-19T18:24:16.390Z,16.77
2022-12-19T18:26:44.224Z,15.67
2022-12-19T18:29:12.006Z,14.33
2022-12-19T18:31:46.527Z,14.13
2022-12-19T18:34:20.760Z,16.90
2022-12-19T18:36:51.713Z,16.80
2022-12-19T18:39:22.020Z,17.27
2022-12-19T18:41:50.124Z,17.63
2022-12-19T18:44:18.619Z,16.57
2022-12-19T18:46:46.746Z,17.77
2022-12-19T18:49:16.728Z,13.87
2022-12-19T18:51:45.555Z,18.47
2022-12-19T18:54:17.090Z,17.23
2022-12-19T18:56:46.072Z,16.03
2022-12-19T18:59:14.078Z,15.97
2022-12-19T19:01:44.543Z,16.43
2022-12-19T19:04:13.352Z,13.63
2022-12-19T19:06:48.527Z,18.87
2022-12-19T19:09:21.808Z,18.57
2022-12-19T19:11:49.629Z,17.50
2022-12-19T19:14:17.368Z,16.57
2022-12-19T19:16:45.394Z,23.17
2022-12-19T19:19:17.788Z,12.97
2022-12-19T19:21:45.673Z,16.07
2022-12-19T19:24:15.766Z,17.03
2022-12-19T19:26:44.877Z,15.47
2022-12-19T19:29:13.460Z,18.37
2022-12-19T19:31:45.037Z,17.83
2022-12-19T19:34:16.456Z,19.23
2022-12-19T19:36:49.612Z,15.60
2022-12-19T19:39:19.726Z,18.50
2022-12-19T19:41:48.826Z,15.47
2022-12-19T19:44:16.601Z,15.80
2022-12-19T19:46:44.724Z,17.50
2022-12-19T19:49:12.566Z,17.13
2022-12-19T19:51:40.283Z,16.27
2022-12-19T19:54:08.159Z,16.27
2022-12-19T19:56:35.924Z,18.90
2022-12-19T19:59:05.083Z,16.40
2022-12-19T20:01:33.181Z,18.80
2022-12-19T20:04:01.028Z,16.87
2022-12-19T20:06:28.832Z,16.53
2022-12-19T20:08:56.531Z,15.67
2022-12-19T20:11:24.314Z,16.87
2022-12-19T20:13:51.996Z,16.77
2022-12-19T20:16:21.362Z,18.33
2022-12-19T20:18:51.127Z,18.57
2022-12-19T20:21:19.664Z,17.23
2022-12-19T20:23:47.537Z,16.23
2022-12-19T20:26:16.762Z,18.33
2022-12-19T20:28:48.840Z,14.73
2022-12-19T20:31:18.311Z,18.00
2022-12-19T20:33:48.357Z,15.90
2022-12-19T20:36:17.105Z,14.93
2022-12-19T20:38:44.803Z,18.97
2022-12-19T20:41:12.507Z,14.07
2022-12-19T20:43:40.191Z,18.70
2022-12-19T20:46:09.407Z,16.40
2022-12-19T20:48:38.148Z,15.57
2022-12-19T20:51:07.858Z,17.27
2022-12-19T20:53:36.857Z,16.30
2022-12-19T20:56:06.463Z,14.70
2022-12-19T20:58:36.621Z,17.30
2022-12-19T21:01:06.782Z,16.77
2022-12-19T21:03:34.949Z,17.10
2022-12-19T21:06:03.435Z,15.50
2022-12-19T21:08:32.813Z,16.00
2022-12-19T21:11:01.091Z,17.10
2022-12-19T21:13:29.200Z,19.03
2022-12-19T21:15:58.510Z,17.27
2022-12-19T21:18:26.953Z,19.13
2022-12-19T21:20:55.647Z,17.90
2022-12-19T21:23:23.829Z,18.23
2022-12-19T21:25:53.600Z,17.70
2022-12-19T21:28:21.297Z,17.23
2022-12-19T21:30:56.748Z,14.30
2022-12-19T21:33:24.673Z,15.47
2022-12-19T21:35:52.452Z,17.63
2022-12-19T21:38:20.151Z,17.57
2022-12-19T21:40:47.928Z,16.47
2022-12-19T21:43:17.266Z,16.70
2022-12-19T21:45:44.995Z,18.13
2022-12-19T21:48:12.719Z,16.87
2022-12-19T21:50:40.362Z,17.13
2022-12-19T21:53:08.022Z,16.83
2022-12-19T21:55:35.793Z,17.33
2022-12-19T21:58:03.450Z,17.93
2022-12-19T22:00:32.423Z,14.13
2022-12-19T22:03:13.983Z,15.07
2022-12-19T22:05:42.712Z,15.00
2022-12-19T22:08:10.840Z,18.13
2022-12-19T22:10:39.508Z,14.33
2022-12-19T22:13:07.164Z,16.40
2022-12-19T22:15:37.585Z,16.03
2022-12-19T22:18:05.336Z,15.93
2022-12-19T22:20:33.012Z,17.10
2022-12-19T22:23:00.653Z,16.23
2022-12-19T22:25:28.387Z,16.00
2022-12-19T22:27:56.469Z,14.67
2022-12-19T22:30:24.128Z,15.67
2022-12-19T22:32:53.286Z,15.30
2022-12-19T22:35:20.965Z,15.07
2022-12-19T22:37:48.666Z,16.50
2022-12-19T22:40:16.748Z,16.43
2022-12-19T22:42:44.406Z,14.87
2022-12-19T22:45:12.566Z,15.37
2022-12-19T22:47:41.929Z,16.37
2022-12-19T22:50:11.498Z,19.00
2022-12-19T22:52:39.533Z,15.17
2022-12-19T22:55:08.259Z,15.60
2022-12-19T22:57:35.904Z,13.17
2022-12-19T23:00:06.248Z,16.23
2022-12-19T23:02:34.268Z,14.33
2022-12-19T23:05:02.091Z,14.53
2022-12-19T23:07:31.224Z,14.03
2022-12-19T23:09:58.877Z,14.17
2022-12-19T23:12:26.671Z,14.47
2022-12-19T23:14:54.396Z,15.50
2022-12-19T23:17:22.185Z,13.47
2022-12-19T23:19:49.828Z,13.87
2022-12-19T23:22:17.537Z,13.93
2022-12-19T23:24:48.075Z,14.63
2022-12-19T23:27:16.257Z,15.83
2022-12-19T23:29:44.049Z,13.90
2022-12-19T23:32:12.016Z,15.93
2022-12-19T23:34:39.728Z,13.77
2022-12-19T23:37:11.837Z,13.33
2022-12-19T23:39:40.231Z,14.37
2022-12-19T23:42:09.518Z,14.97
2022-12-19T23:44:37.468Z,15.60
2022-12-19T23:47:05.200Z,12.50
2022-12-19T23:49:34.030Z,14.87
2022-12-19T23:52:01.922Z,15.57
2022-12-19T23:54:29.604Z,12.20
2022-12-19T23:56:57.293Z,15.47
2022-12-19T23:59:26.299Z,16.20
